sensor_id;sensor_type;location;lat;lon;timestamp;P1;durP1;ratioP1;P2;durP2;ratioP2
27704;SDS011;15109;50.992;6.918;2022-11-20T00:02:29;8.07;;;4.53;;
27704;SDS011;15109;50.992;6.918;2022-11-20T00:05:50;7.82;;;4.13;;
27704;SDS011;15109;50.992;6.918;2022-11-20T00:09:11;8.75;;;3.80;;
27704;SDS011;15109;50.992;6.918;2022-11-20T00:12:32;7.20;;;3.92;;
27704;SDS011;15109;50.992;6.918;2022-11-20T00:15:57;8.35;;;4.32;;
27704;SDS011;15109;50.992;6.918;2022-11-20T00:19:19;7.88;;;4.20;;
27704;SDS011;15109;50.992;6.918;2022-11-20T00:22:40;7.85;;;4.47;;
27704;SDS011;15109;50.992;6.918;2022-11-20T00:26:02;8.35;;;4.35;;
27704;SDS011;15109;50.992;6.918;2022-11-20T00:32:48;8.15;;;4.53;;
27704;SDS011;15109;50.992;6.918;2022-11-20T00:36:13;15.55;;;5.68;;
27704;SDS011;15109;50.992;6.918;2022-11-20T00:39:42;8.77;;;4.57;;
27704;SDS011;15109;50.992;6.918;2022-11-20T00:43:03;9.98;;;5.00;;
27704;SDS011;15109;50.992;6.918;2022-11-20T00:46:25;8.45;;;4.32;;
27704;SDS011;15109;50.992;6.918;2022-11-20T00:49:47;9.05;;;4.55;;
27704;SDS011;15109;50.992;6.918;2022-11-20T00:53:08;7.32;;;3.78;;
27704;SDS011;15109;50.992;6.918;2022-11-20T00:56:29;9.20;;;5.00;;
27704;SDS011;15109;50.992;6.918;2022-11-20T00:59:50;9.48;;;4.47;;
27704;SDS011;15109;50.992;6.918;2022-11-20T01:03:11;9.00;;;4.82;;
27704;SDS011;15109;50.992;6.918;2022-11-20T01:06:33;7.57;;;4.25;;
27704;SDS011;15109;50.992;6.918;2022-11-20T01:09:56;7.35;;;4.13;;
27704;SDS011;15109;50.992;6.918;2022-11-20T01:13:17;7.70;;;4.22;;
27704;SDS011;15109;50.992;6.918;2022-11-20T01:16:57;8.25;;;5.15;;
27704;SDS011;15109;50.992;6.918;2022-11-20T01:20:18;8.57;;;4.40;;
27704;SDS011;15109;50.992;6.918;2022-11-20T01:23:40;7.38;;;3.65;;
27704;SDS011;15109;50.992;6.918;2022-11-20T01:27:02;12.68;;;4.82;;
27704;SDS011;15109;50.992;6.918;2022-11-20T01:30:23;10.23;;;4.78;;
27704;SDS011;15109;50.992;6.918;2022-11-20T01:33:45;8.45;;;4.30;;
27704;SDS011;15109;50.992;6.918;2022-11-20T01:37:07;9.13;;;4.85;;
27704;SDS011;15109;50.992;6.918;2022-11-20T01:40:28;9.80;;;5.18;;
27704;SDS011;15109;50.992;6.918;2022-11-20T01:43:49;9.98;;;5.05;;
27704;SDS011;15109;50.992;6.918;2022-11-20T01:47:11;12.55;;;3.97;;
27704;SDS011;15109;50.992;6.918;2022-11-20T01:50:35;8.30;;;4.65;;
27704;SDS011;15109;50.992;6.918;2022-11-20T01:53:57;10.52;;;4.63;;
27704;SDS011;15109;50.992;6.918;2022-11-20T01:57:21;9.07;;;4.63;;
27704;SDS011;15109;50.992;6.918;2022-11-20T02:00:44;6.63;;;4.15;;
27704;SDS011;15109;50.992;6.918;2022-11-20T02:04:06;6.45;;;3.67;;
27704;SDS011;15109;50.992;6.918;2022-11-20T02:07:29;14.70;;;5.07;;
27704;SDS011;15109;50.992;6.918;2022-11-20T02:10:50;9.52;;;4.43;;
27704;SDS011;15109;50.992;6.918;2022-11-20T02:14:12;11.88;;;5.22;;
27704;SDS011;15109;50.992;6.918;2022-11-20T02:17:34;7.53;;;4.20;;
27704;SDS011;15109;50.992;6.918;2022-11-20T02:20:58;9.43;;;4.07;;
27704;SDS011;15109;50.992;6.918;2022-11-20T02:24:27;9.45;;;3.83;;
27704;SDS011;15109;50.992;6.918;2022-11-20T02:27:48;6.10;;;3.88;;
27704;SDS011;15109;50.992;6.918;2022-11-20T02:31:09;7.70;;;4.25;;
27704;SDS011;15109;50.992;6.918;2022-11-20T02:34:30;6.97;;;4.05;;
27704;SDS011;15109;50.992;6.918;2022-11-20T02:37:53;12.60;;;5.10;;
27704;SDS011;15109;50.992;6.918;2022-11-20T02:41:15;7.70;;;4.03;;
27704;SDS011;15109;50.992;6.918;2022-11-20T02:44:36;8.70;;;3.75;;
27704;SDS011;15109;50.992;6.918;2022-11-20T02:47:57;6.60;;;3.88;;
27704;SDS011;15109;50.992;6.918;2022-11-20T02:51:18;9.32;;;4.38;;
27704;SDS011;15109;50.992;6.918;2022-11-20T02:54:39;8.23;;;4.30;;
27704;SDS011;15109;50.992;6.918;2022-11-20T02:58:00;6.13;;;3.28;;
27704;SDS011;15109;50.992;6.918;2022-11-20T03:01:22;9.68;;;4.30;;
27704;SDS011;15109;50.992;6.918;2022-11-20T03:04:44;6.38;;;3.75;;
27704;SDS011;15109;50.992;6.918;2022-11-20T03:08:05;10.45;;;4.38;;
27704;SDS011;15109;50.992;6.918;2022-11-20T03:11:26;9.35;;;4.97;;
27704;SDS011;15109;50.992;6.918;2022-11-20T03:14:47;7.13;;;3.85;;
27704;SDS011;15109;50.992;6.918;2022-11-20T03:18:08;10.68;;;4.47;;
27704;SDS011;15109;50.992;6.918;2022-11-20T03:21:30;6.97;;;3.65;;
27704;SDS011;15109;50.992;6.918;2022-11-20T03:24:51;7.70;;;4.53;;
27704;SDS011;15109;50.992;6.918;2022-11-20T03:28:12;6.43;;;3.38;;
27704;SDS011;15109;50.992;6.918;2022-11-20T03:31:38;7.97;;;4.00;;
27704;SDS011;15109;50.992;6.918;2022-11-20T03:35:02;8.23;;;4.07;;
27704;SDS011;15109;50.992;6.918;2022-11-20T03:38:24;9.50;;;4.70;;
27704;SDS011;15109;50.992;6.918;2022-11-20T03:41:45;9.73;;;4.25;;
27704;SDS011;15109;50.992;6.918;2022-11-20T03:45:06;8.15;;;4.20;;
27704;SDS011;15109;50.992;6.918;2022-11-20T03:48:27;8.05;;;4.57;;
27704;SDS011;15109;50.992;6.918;2022-11-20T03:51:49;8.68;;;4.60;;
27704;SDS011;15109;50.992;6.918;2022-11-20T03:55:10;7.75;;;4.43;;
27704;SDS011;15109;50.992;6.918;2022-11-20T03:58:32;7.43;;;4.03;;
27704;SDS011;15109;50.992;6.918;2022-11-20T04:01:54;9.55;;;4.32;;
27704;SDS011;15109;50.992;6.918;2022-11-20T04:05:15;6.88;;;4.28;;
27704;SDS011;15109;50.992;6.918;2022-11-20T04:08:36;9.57;;;4.60;;
27704;SDS011;15109;50.992;6.918;2022-11-20T04:11:58;9.75;;;4.45;;
27704;SDS011;15109;50.992;6.918;2022-11-20T04:15:19;14.00;;;4.57;;
27704;SDS011;15109;50.992;6.918;2022-11-20T04:18:40;9.60;;;4.22;;
27704;SDS011;15109;50.992;6.918;2022-11-20T04:22:01;9.88;;;4.50;;
27704;SDS011;15109;50.992;6.918;2022-11-20T04:25:23;7.60;;;4.32;;
27704;SDS011;15109;50.992;6.918;2022-11-20T04:28:44;9.80;;;4.78;;
27704;SDS011;15109;50.992;6.918;2022-11-20T04:32:05;7.53;;;4.03;;
27704;SDS011;15109;50.992;6.918;2022-11-20T04:35:29;8.73;;;3.60;;
27704;SDS011;15109;50.992;6.918;2022-11-20T04:38:51;7.45;;;4.03;;
27704;SDS011;15109;50.992;6.918;2022-11-20T04:42:13;10.82;;;4.93;;
27704;SDS011;15109;50.992;6.918;2022-11-20T04:45:56;10.07;;;5.57;;
27704;SDS011;15109;50.992;6.918;2022-11-20T04:49:18;8.35;;;4.13;;
27704;SDS011;15109;50.992;6.918;2022-11-20T04:52:39;11.10;;;4.28;;
27704;SDS011;15109;50.992;6.918;2022-11-20T04:56:04;10.70;;;4.55;;
27704;SDS011;15109;50.992;6.918;2022-11-20T04:59:27;10.07;;;4.28;;
27704;SDS011;15109;50.992;6.918;2022-11-20T05:02:48;9.63;;;5.40;;
27704;SDS011;15109;50.992;6.918;2022-11-20T05:06:10;10.10;;;4.88;;
27704;SDS011;15109;50.992;6.918;2022-11-20T05:09:33;8.35;;;4.63;;
27704;SDS011;15109;50.992;6.918;2022-11-20T05:12:54;6.35;;;3.90;;
27704;SDS011;15109;50.992;6.918;2022-11-20T05:16:16;6.45;;;3.78;;
27704;SDS011;15109;50.992;6.918;2022-11-20T05:19:41;10.40;;;4.60;;
27704;SDS011;15109;50.992;6.918;2022-11-20T05:23:02;12.27;;;5.32;;
27704;SDS011;15109;50.992;6.918;2022-11-20T05:26:24;8.48;;;4.53;;
27704;SDS011;15109;50.992;6.918;2022-11-20T05:29:45;7.63;;;4.60;;
27704;SDS011;15109;50.992;6.918;2022-11-20T05:33:07;10.52;;;5.35;;
27704;SDS011;15109;50.992;6.918;2022-11-20T05:36:28;11.27;;;4.57;;
27704;SDS011;15109;50.992;6.918;2022-11-20T05:39:50;13.80;;;4.93;;
27704;SDS011;15109;50.992;6.918;2022-11-20T05:43:11;11.82;;;5.07;;
27704;SDS011;15109;50.992;6.918;2022-11-20T05:46:32;9.70;;;5.18;;
27704;SDS011;15109;50.992;6.918;2022-11-20T05:49:54;9.43;;;4.90;;
27704;SDS011;15109;50.992;6.918;2022-11-20T05:53:15;11.55;;;4.85;;
27704;SDS011;15109;50.992;6.918;2022-11-20T05:56:36;10.23;;;5.13;;
27704;SDS011;15109;50.992;6.918;2022-11-20T05:59:57;10.57;;;5.10;;
27704;SDS011;15109;50.992;6.918;2022-11-20T06:03:18;9.93;;;4.95;;
27704;SDS011;15109;50.992;6.918;2022-11-20T06:06:39;8.60;;;4.60;;
27704;SDS011;15109;50.992;6.918;2022-11-20T06:10:00;10.43;;;5.45;;
27704;SDS011;15109;50.992;6.918;2022-11-20T06:13:21;8.18;;;4.90;;
27704;SDS011;15109;50.992;6.918;2022-11-20T06:16:42;9.48;;;5.15;;
27704;SDS011;15109;50.992;6.918;2022-11-20T06:20:03;14.82;;;5.28;;
27704;SDS011;15109;50.992;6.918;2022-11-20T06:23:25;9.60;;;5.07;;
27704;SDS011;15109;50.992;6.918;2022-11-20T06:26:46;8.98;;;5.38;;
27704;SDS011;15109;50.992;6.918;2022-11-20T06:30:07;10.55;;;4.82;;
27704;SDS011;15109;50.992;6.918;2022-11-20T06:33:29;5.63;;;3.38;;
27704;SDS011;15109;50.992;6.918;2022-11-20T06:36:50;7.03;;;4.03;;
27704;SDS011;15109;50.992;6.918;2022-11-20T06:40:11;8.00;;;4.78;;
27704;SDS011;15109;50.992;6.918;2022-11-20T06:43:33;9.02;;;4.72;;
27704;SDS011;15109;50.992;6.918;2022-11-20T06:46:54;10.65;;;5.45;;
27704;SDS011;15109;50.992;6.918;2022-11-20T06:50:15;9.80;;;4.90;;
27704;SDS011;15109;50.992;6.918;2022-11-20T06:53:36;7.85;;;4.90;;
27704;SDS011;15109;50.992;6.918;2022-11-20T06:56:58;7.80;;;4.10;;
27704;SDS011;15109;50.992;6.918;2022-11-20T07:00:19;10.60;;;5.03;;
27704;SDS011;15109;50.992;6.918;2022-11-20T07:03:40;6.72;;;4.00;;
27704;SDS011;15109;50.992;6.918;2022-11-20T07:07:03;9.43;;;5.32;;
27704;SDS011;15109;50.992;6.918;2022-11-20T07:10:24;8.10;;;3.83;;
27704;SDS011;15109;50.992;6.918;2022-11-20T07:13:45;7.20;;;4.15;;
27704;SDS011;15109;50.992;6.918;2022-11-20T07:17:07;10.35;;;5.13;;
27704;SDS011;15109;50.992;6.918;2022-11-20T07:20:28;8.32;;;4.85;;
27704;SDS011;15109;50.992;6.918;2022-11-20T07:23:49;8.98;;;4.70;;
27704;SDS011;15109;50.992;6.918;2022-11-20T07:27:10;9.88;;;4.68;;
27704;SDS011;15109;50.992;6.918;2022-11-20T07:30:31;12.05;;;5.80;;
27704;SDS011;15109;50.992;6.918;2022-11-20T07:33:52;14.30;;;5.65;;
27704;SDS011;15109;50.992;6.918;2022-11-20T07:37:14;11.25;;;5.05;;
27704;SDS011;15109;50.992;6.918;2022-11-20T07:40:35;9.68;;;6.18;;
27704;SDS011;15109;50.992;6.918;2022-11-20T07:43:57;7.07;;;4.50;;
27704;SDS011;15109;50.992;6.918;2022-11-20T07:47:18;10.18;;;5.45;;
27704;SDS011;15109;50.992;6.918;2022-11-20T07:50:39;9.63;;;5.40;;
27704;SDS011;15109;50.992;6.918;2022-11-20T07:54:00;11.45;;;5.63;;
27704;SDS011;15109;50.992;6.918;2022-11-20T07:57:21;12.23;;;5.97;;
27704;SDS011;15109;50.992;6.918;2022-11-20T08:00:43;11.02;;;5.28;;
27704;SDS011;15109;50.992;6.918;2022-11-20T08:04:04;17.98;;;5.72;;
27704;SDS011;15109;50.992;6.918;2022-11-20T08:07:25;12.85;;;6.28;;
27704;SDS011;15109;50.992;6.918;2022-11-20T08:10:46;11.50;;;5.72;;
27704;SDS011;15109;50.992;6.918;2022-11-20T08:14:07;11.23;;;6.15;;
27704;SDS011;15109;50.992;6.918;2022-11-20T08:17:34;12.50;;;6.28;;
27704;SDS011;15109;50.992;6.918;2022-11-20T08:20:55;8.70;;;4.57;;
27704;SDS011;15109;50.992;6.918;2022-11-20T08:24:16;12.95;;;5.85;;
27704;SDS011;15109;50.992;6.918;2022-11-20T08:27:37;19.35;;;6.70;;
27704;SDS011;15109;50.992;6.918;2022-11-20T08:31:02;15.68;;;7.88;;
27704;SDS011;15109;50.992;6.918;2022-11-20T08:34:23;12.43;;;6.95;;
27704;SDS011;15109;50.992;6.918;2022-11-20T08:37:47;9.57;;;4.85;;
27704;SDS011;15109;50.992;6.918;2022-11-20T08:41:09;9.70;;;5.57;;
27704;SDS011;15109;50.992;6.918;2022-11-20T08:44:47;14.65;;;6.50;;
27704;SDS011;15109;50.992;6.918;2022-11-20T08:48:08;14.10;;;7.03;;
27704;SDS011;15109;50.992;6.918;2022-11-20T08:51:29;14.18;;;5.75;;
27704;SDS011;15109;50.992;6.918;2022-11-20T08:54:51;6.80;;;4.05;;
27704;SDS011;15109;50.992;6.918;2022-11-20T08:58:12;10.88;;;5.72;;
27704;SDS011;15109;50.992;6.918;2022-11-20T09:01:33;11.65;;;5.53;;
27704;SDS011;15109;50.992;6.918;2022-11-20T09:04:54;15.52;;;6.60;;
27704;SDS011;15109;50.992;6.918;2022-11-20T09:08:15;13.25;;;6.05;;
27704;SDS011;15109;50.992;6.918;2022-11-20T09:11:36;9.30;;;4.78;;
27704;SDS011;15109;50.992;6.918;2022-11-20T09:14:57;7.90;;;3.83;;
27704;SDS011;15109;50.992;6.918;2022-11-20T09:18:18;8.00;;;3.88;;
27704;SDS011;15109;50.992;6.918;2022-11-20T09:21:39;10.02;;;4.03;;
27704;SDS011;15109;50.992;6.918;2022-11-20T09:25:00;8.70;;;5.03;;
27704;SDS011;15109;50.992;6.918;2022-11-20T09:28:22;10.02;;;5.30;;
27704;SDS011;15109;50.992;6.918;2022-11-20T09:31:43;7.80;;;4.65;;
27704;SDS011;15109;50.992;6.918;2022-11-20T09:35:04;9.65;;;4.75;;
27704;SDS011;15109;50.992;6.918;2022-11-20T09:38:25;8.40;;;3.95;;
27704;SDS011;15109;50.992;6.918;2022-11-20T09:41:59;8.43;;;4.82;;
27704;SDS011;15109;50.992;6.918;2022-11-20T09:56:33;13.30;;;5.38;;
27704;SDS011;15109;50.992;6.918;2022-11-20T10:00:03;9.70;;;4.72;;
27704;SDS011;15109;50.992;6.918;2022-11-20T10:03:37;7.80;;;4.80;;
27704;SDS011;15109;50.992;6.918;2022-11-20T10:24:55;13.25;;;4.60;;
27704;SDS011;15109;50.992;6.918;2022-11-20T10:32:00;9.68;;;5.40;;
27704;SDS011;15109;50.992;6.918;2022-11-20T10:35:43;9.73;;;4.75;;
27704;SDS011;15109;50.992;6.918;2022-11-20T10:43:13;13.65;;;6.03;;
27704;SDS011;15109;50.992;6.918;2022-11-20T10:46:39;13.65;;;5.80;;
27704;SDS011;15109;50.992;6.918;2022-11-20T10:50:04;9.38;;;4.68;;
27704;SDS011;15109;50.992;6.918;2022-11-20T10:53:40;10.38;;;4.85;;
27704;SDS011;15109;50.992;6.918;2022-11-20T10:57:14;8.52;;;4.70;;
27704;SDS011;15109;50.992;6.918;2022-11-20T11:00:45;12.80;;;5.50;;
27704;SDS011;15109;50.992;6.918;2022-11-20T11:04:07;8.80;;;4.60;;
27704;SDS011;15109;50.992;6.918;2022-11-20T11:07:48;14.13;;;5.78;;
27704;SDS011;15109;50.992;6.918;2022-11-20T11:14:45;12.63;;;5.82;;
27704;SDS011;15109;50.992;6.918;2022-11-20T11:18:10;13.32;;;5.47;;
27704;SDS011;15109;50.992;6.918;2022-11-20T11:21:31;12.02;;;6.15;;
27704;SDS011;15109;50.992;6.918;2022-11-20T11:24:53;9.40;;;5.10;;
27704;SDS011;15109;50.992;6.918;2022-11-20T11:31:38;11.20;;;5.50;;
27704;SDS011;15109;50.992;6.918;2022-11-20T11:35:03;15.10;;;6.47;;
27704;SDS011;15109;50.992;6.918;2022-11-20T11:38:29;11.90;;;6.43;;
27704;SDS011;15109;50.992;6.918;2022-11-20T11:41:50;8.93;;;5.35;;
27704;SDS011;15109;50.992;6.918;2022-11-20T11:45:14;10.95;;;5.43;;
27704;SDS011;15109;50.992;6.918;2022-11-20T11:48:37;7.57;;;4.43;;
27704;SDS011;15109;50.992;6.918;2022-11-20T11:58:47;8.88;;;4.72;;
27704;SDS011;15109;50.992;6.918;2022-11-20T12:02:31;10.68;;;5.55;;
27704;SDS011;15109;50.992;6.918;2022-11-20T12:05:58;8.95;;;4.78;;
27704;SDS011;15109;50.992;6.918;2022-11-20T12:09:23;11.50;;;5.70;;
27704;SDS011;15109;50.992;6.918;2022-11-20T12:12:54;10.57;;;5.47;;
27704;SDS011;15109;50.992;6.918;2022-11-20T12:16:21;13.20;;;6.47;;
27704;SDS011;15109;50.992;6.918;2022-11-20T12:19:43;12.13;;;5.47;;
27704;SDS011;15109;50.992;6.918;2022-11-20T12:26:57;11.45;;;5.55;;
27704;SDS011;15109;50.992;6.918;2022-11-20T12:30:22;9.95;;;5.70;;
27704;SDS011;15109;50.992;6.918;2022-11-20T12:38:11;10.55;;;5.65;;
27704;SDS011;15109;50.992;6.918;2022-11-20T12:41:54;10.98;;;6.15;;
27704;SDS011;15109;50.992;6.918;2022-11-20T12:57:57;17.38;;;5.88;;
27704;SDS011;15109;50.992;6.918;2022-11-20T13:01:34;12.23;;;5.90;;
27704;SDS011;15109;50.992;6.918;2022-11-20T13:05:13;15.15;;;5.72;;
27704;SDS011;15109;50.992;6.918;2022-11-20T13:08:37;10.68;;;5.60;;
27704;SDS011;15109;50.992;6.918;2022-11-20T13:12:08;12.57;;;6.30;;
27704;SDS011;15109;50.992;6.918;2022-11-20T13:19:19;12.18;;;5.72;;
27704;SDS011;15109;50.992;6.918;2022-11-20T13:22:43;6.80;;;3.92;;
27704;SDS011;15109;50.992;6.918;2022-11-20T13:26:06;11.55;;;6.15;;
27704;SDS011;15109;50.992;6.918;2022-11-20T13:29:44;12.32;;;5.47;;
27704;SDS011;15109;50.992;6.918;2022-11-20T13:33:07;9.00;;;4.82;;
27704;SDS011;15109;50.992;6.918;2022-11-20T13:36:50;10.25;;;5.75;;
27704;SDS011;15109;50.992;6.918;2022-11-20T13:40:13;10.60;;;5.20;;
27704;SDS011;15109;50.992;6.918;2022-11-20T13:43:41;15.15;;;6.20;;
27704;SDS011;15109;50.992;6.918;2022-11-20T13:47:03;10.13;;;5.15;;
27704;SDS011;15109;50.992;6.918;2022-11-20T14:01:19;7.47;;;4.35;;
27704;SDS011;15109;50.992;6.918;2022-11-20T14:04:51;15.27;;;6.38;;
27704;SDS011;15109;50.992;6.918;2022-11-20T14:08:17;8.85;;;4.97;;
27704;SDS011;15109;50.992;6.918;2022-11-20T14:11:47;10.95;;;5.82;;
27704;SDS011;15109;50.992;6.918;2022-11-20T14:15:22;11.00;;;5.57;;
27704;SDS011;15109;50.992;6.918;2022-11-20T14:18:55;10.63;;;4.60;;
27704;SDS011;15109;50.992;6.918;2022-11-20T14:22:18;11.35;;;4.95;;
27704;SDS011;15109;50.992;6.918;2022-11-20T14:25:42;8.50;;;4.28;;
27704;SDS011;15109;50.992;6.918;2022-11-20T14:29:05;16.13;;;5.68;;
27704;SDS011;15109;50.992;6.918;2022-11-20T14:32:27;11.65;;;4.70;;
27704;SDS011;15109;50.992;6.918;2022-11-20T14:35:51;9.23;;;4.30;;
27704;SDS011;15109;50.992;6.918;2022-11-20T14:39:21;10.43;;;5.53;;
27704;SDS011;15109;50.992;6.918;2022-11-20T14:42:43;13.38;;;5.22;;
27704;SDS011;15109;50.992;6.918;2022-11-20T14:46:05;11.93;;;5.25;;
27704;SDS011;15109;50.992;6.918;2022-11-20T14:49:29;14.65;;;5.28;;
27704;SDS011;15109;50.992;6.918;2022-11-20T14:52:59;8.25;;;4.55;;
27704;SDS011;15109;50.992;6.918;2022-11-20T14:56:24;8.23;;;3.85;;
27704;SDS011;15109;50.992;6.918;2022-11-20T14:59:45;9.40;;;4.57;;
27704;SDS011;15109;50.992;6.918;2022-11-20T15:03:14;9.45;;;4.30;;
27704;SDS011;15109;50.992;6.918;2022-11-20T15:06:48;7.93;;;4.38;;
27704;SDS011;15109;50.992;6.918;2022-11-20T15:10:13;6.13;;;3.60;;
27704;SDS011;15109;50.992;6.918;2022-11-20T15:13:54;9.07;;;4.13;;
27704;SDS011;15109;50.992;6.918;2022-11-20T15:17:15;7.05;;;4.20;;
27704;SDS011;15109;50.992;6.918;2022-11-20T15:20:37;14.38;;;4.97;;
27704;SDS011;15109;50.992;6.918;2022-11-20T15:23:58;9.65;;;5.28;;
27704;SDS011;15109;50.992;6.918;2022-11-20T15:27:20;7.13;;;3.75;;
27704;SDS011;15109;50.992;6.918;2022-11-20T15:30:41;6.50;;;3.72;;
27704;SDS011;15109;50.992;6.918;2022-11-20T15:34:02;11.15;;;4.35;;
27704;SDS011;15109;50.992;6.918;2022-11-20T15:37:23;15.38;;;5.18;;
27704;SDS011;15109;50.992;6.918;2022-11-20T15:40:44;8.65;;;4.43;;
27704;SDS011;15109;50.992;6.918;2022-11-20T15:44:05;10.32;;;5.22;;
27704;SDS011;15109;50.992;6.918;2022-11-20T15:47:28;14.98;;;5.38;;
27704;SDS011;15109;50.992;6.918;2022-11-20T15:50:58;11.20;;;5.38;;
27704;SDS011;15109;50.992;6.918;2022-11-20T15:54:23;7.82;;;3.90;;
27704;SDS011;15109;50.992;6.918;2022-11-20T15:57:44;11.15;;;5.18;;
27704;SDS011;15109;50.992;6.918;2022-11-20T16:01:10;9.93;;;5.20;;
27704;SDS011;15109;50.992;6.918;2022-11-20T16:04:32;10.53;;;5.50;;
27704;SDS011;15109;50.992;6.918;2022-11-20T16:07:53;6.88;;;4.32;;
27704;SDS011;15109;50.992;6.918;2022-11-20T16:11:15;7.93;;;4.22;;
27704;SDS011;15109;50.992;6.918;2022-11-20T16:14:37;7.07;;;4.20;;
27704;SDS011;15109;50.992;6.918;2022-11-20T16:18:22;11.77;;;4.88;;
27704;SDS011;15109;50.992;6.918;2022-11-20T16:21:43;6.80;;;4.03;;
27704;SDS011;15109;50.992;6.918;2022-11-20T16:25:04;9.95;;;4.32;;
27704;SDS011;15109;50.992;6.918;2022-11-20T16:28:25;7.25;;;4.22;;
27704;SDS011;15109;50.992;6.918;2022-11-20T16:31:47;9.77;;;4.18;;
27704;SDS011;15109;50.992;6.918;2022-11-20T16:35:08;9.13;;;4.40;;
27704;SDS011;15109;50.992;6.918;2022-11-20T16:38:29;10.82;;;5.18;;
27704;SDS011;15109;50.992;6.918;2022-11-20T16:41:50;7.40;;;4.10;;
27704;SDS011;15109;50.992;6.918;2022-11-20T16:45:11;11.07;;;5.10;;
27704;SDS011;15109;50.992;6.918;2022-11-20T16:48:32;7.63;;;4.15;;
27704;SDS011;15109;50.992;6.918;2022-11-20T16:51:53;7.10;;;3.95;;
27704;SDS011;15109;50.992;6.918;2022-11-20T16:55:14;8.38;;;4.55;;
27704;SDS011;15109;50.992;6.918;2022-11-20T16:58:35;5.70;;;2.78;;
27704;SDS011;15109;50.992;6.918;2022-11-20T17:01:57;8.85;;;4.32;;
27704;SDS011;15109;50.992;6.918;2022-11-20T17:05:18;8.52;;;3.65;;
27704;SDS011;15109;50.992;6.918;2022-11-20T17:08:39;8.90;;;4.45;;
27704;SDS011;15109;50.992;6.918;2022-11-20T17:12:00;6.38;;;2.78;;
27704;SDS011;15109;50.992;6.918;2022-11-20T17:15:21;8.93;;;3.53;;
27704;SDS011;15109;50.992;6.918;2022-11-20T17:18:43;4.97;;;2.22;;
27704;SDS011;15109;50.992;6.918;2022-11-20T17:22:05;6.82;;;3.10;;
27704;SDS011;15109;50.992;6.918;2022-11-20T17:25:26;8.63;;;3.33;;
27704;SDS011;15109;50.992;6.918;2022-11-20T17:29:00;3.63;;;2.03;;
27704;SDS011;15109;50.992;6.918;2022-11-20T17:32:23;3.25;;;1.70;;
27704;SDS011;15109;50.992;6.918;2022-11-20T17:35:44;9.75;;;2.70;;
27704;SDS011;15109;50.992;6.918;2022-11-20T17:39:05;3.15;;;1.52;;
27704;SDS011;15109;50.992;6.918;2022-11-20T17:42:26;3.13;;;1.63;;
27704;SDS011;15109;50.992;6.918;2022-11-20T17:45:49;2.20;;;1.27;;
27704;SDS011;15109;50.992;6.918;2022-11-20T17:49:10;4.07;;;1.83;;
27704;SDS011;15109;50.992;6.918;2022-11-20T17:52:31;2.88;;;1.52;;
27704;SDS011;15109;50.992;6.918;2022-11-20T17:55:55;3.05;;;1.52;;
27704;SDS011;15109;50.992;6.918;2022-11-20T17:59:36;6.57;;;2.47;;
27704;SDS011;15109;50.992;6.918;2022-11-20T18:02:57;4.15;;;2.05;;
27704;SDS011;15109;50.992;6.918;2022-11-20T18:06:19;3.15;;;1.75;;
27704;SDS011;15109;50.992;6.918;2022-11-20T18:09:42;9.63;;;3.53;;
27704;SDS011;15109;50.992;6.918;2022-11-20T18:13:03;9.15;;;3.60;;
27704;SDS011;15109;50.992;6.918;2022-11-20T18:16:25;13.40;;;4.47;;
27704;SDS011;15109;50.992;6.918;2022-11-20T18:19:47;5.80;;;2.78;;
27704;SDS011;15109;50.992;6.918;2022-11-20T18:23:10;12.63;;;2.50;;
27704;SDS011;15109;50.992;6.918;2022-11-20T18:26:31;6.45;;;2.53;;
27704;SDS011;15109;50.992;6.918;2022-11-20T18:29:52;5.32;;;2.13;;
27704;SDS011;15109;50.992;6.918;2022-11-20T18:33:13;2.95;;;1.58;;
27704;SDS011;15109;50.992;6.918;2022-11-20T18:36:34;4.50;;;1.27;;
27704;SDS011;15109;50.992;6.918;2022-11-20T18:39:55;2.67;;;1.48;;
27704;SDS011;15109;50.992;6.918;2022-11-20T18:43:16;4.43;;;2.55;;
27704;SDS011;15109;50.992;6.918;2022-11-20T18:46:56;4.05;;;2.08;;
27704;SDS011;15109;50.992;6.918;2022-11-20T18:50:17;2.58;;;1.58;;
27704;SDS011;15109;50.992;6.918;2022-11-20T18:53:38;5.03;;;2.20;;
27704;SDS011;15109;50.992;6.918;2022-11-20T18:56:59;4.28;;;2.50;;
27704;SDS011;15109;50.992;6.918;2022-11-20T19:00:21;4.38;;;1.98;;
27704;SDS011;15109;50.992;6.918;2022-11-20T19:03:42;5.63;;;2.72;;
27704;SDS011;15109;50.992;6.918;2022-11-20T19:07:03;4.80;;;2.60;;
27704;SDS011;15109;50.992;6.918;2022-11-20T19:10:25;6.78;;;1.60;;
27704;SDS011;15109;50.992;6.918;2022-11-20T19:13:46;3.22;;;1.17;;
27704;SDS011;15109;50.992;6.918;2022-11-20T19:17:08;4.05;;;1.45;;
27704;SDS011;15109;50.992;6.918;2022-11-20T19:20:30;3.42;;;1.70;;
27704;SDS011;15109;50.992;6.918;2022-11-20T19:23:53;3.70;;;1.23;;
27704;SDS011;15109;50.992;6.918;2022-11-20T19:27:16;3.03;;;1.10;;
27704;SDS011;15109;50.992;6.918;2022-11-20T19:30:37;2.85;;;1.25;;
27704;SDS011;15109;50.992;6.918;2022-11-20T19:33:59;2.30;;;1.13;;
27704;SDS011;15109;50.992;6.918;2022-11-20T19:37:22;3.05;;;1.13;;
27704;SDS011;15109;50.992;6.918;2022-11-20T19:40:44;5.25;;;1.67;;
27704;SDS011;15109;50.992;6.918;2022-11-20T19:44:09;17.17;;;1.45;;
27704;SDS011;15109;50.992;6.918;2022-11-20T19:47:33;4.80;;;1.30;;
27704;SDS011;15109;50.992;6.918;2022-11-20T19:50:54;2.45;;;0.82;;
27704;SDS011;15109;50.992;6.918;2022-11-20T19:54:15;8.93;;;1.95;;
27704;SDS011;15109;50.992;6.918;2022-11-20T19:57:37;2.92;;;1.40;;
27704;SDS011;15109;50.992;6.918;2022-11-20T20:01:11;8.80;;;2.03;;
27704;SDS011;15109;50.992;6.918;2022-11-20T20:04:34;5.60;;;2.10;;
27704;SDS011;15109;50.992;6.918;2022-11-20T20:07:55;8.00;;;1.42;;
27704;SDS011;15109;50.992;6.918;2022-11-20T20:11:17;1.52;;;0.55;;
27704;SDS011;15109;50.992;6.918;2022-11-20T20:14:43;5.80;;;1.65;;
27704;SDS011;15109;50.992;6.918;2022-11-20T20:18:04;3.15;;;1.10;;
27704;SDS011;15109;50.992;6.918;2022-11-20T20:21:25;3.63;;;1.00;;
27704;SDS011;15109;50.992;6.918;2022-11-20T20:24:47;3.70;;;1.23;;
27704;SDS011;15109;50.992;6.918;2022-11-20T20:28:08;2.15;;;1.05;;
27704;SDS011;15109;50.992;6.918;2022-11-20T20:31:30;5.43;;;1.80;;
27704;SDS011;15109;50.992;6.918;2022-11-20T20:34:53;1.42;;;0.88;;
27704;SDS011;15109;50.992;6.918;2022-11-20T20:38:14;4.57;;;1.13;;
27704;SDS011;15109;50.992;6.918;2022-11-20T20:41:35;3.28;;;0.93;;
27704;SDS011;15109;50.992;6.918;2022-11-20T20:44:56;4.50;;;0.85;;
27704;SDS011;15109;50.992;6.918;2022-11-20T20:48:26;2.47;;;0.98;;
27704;SDS011;15109;50.992;6.918;2022-11-20T20:51:47;2.88;;;0.75;;
27704;SDS011;15109;50.992;6.918;2022-11-20T20:55:08;1.55;;;0.88;;
27704;SDS011;15109;50.992;6.918;2022-11-20T20:58:29;4.28;;;1.30;;
27704;SDS011;15109;50.992;6.918;2022-11-20T21:01:51;10.85;;;1.58;;
27704;SDS011;15109;50.992;6.918;2022-11-20T21:05:12;2.20;;;0.90;;
27704;SDS011;15109;50.992;6.918;2022-11-20T21:08:33;3.70;;;0.63;;
27704;SDS011;15109;50.992;6.918;2022-11-20T21:11:54;5.55;;;1.20;;
27704;SDS011;15109;50.992;6.918;2022-11-20T21:15:15;1.38;;;0.82;;
27704;SDS011;15109;50.992;6.918;2022-11-20T21:18:36;0.73;;;0.47;;
27704;SDS011;15109;50.992;6.918;2022-11-20T21:21:57;4.88;;;0.73;;
27704;SDS011;15109;50.992;6.918;2022-11-20T21:25:18;0.93;;;0.35;;
27704;SDS011;15109;50.992;6.918;2022-11-20T21:28:39;7.40;;;1.25;;
27704;SDS011;15109;50.992;6.918;2022-11-20T21:32:01;1.40;;;0.68;;
27704;SDS011;15109;50.992;6.918;2022-11-20T21:35:22;3.30;;;1.05;;
27704;SDS011;15109;50.992;6.918;2022-11-20T21:38:43;2.30;;;0.77;;
27704;SDS011;15109;50.992;6.918;2022-11-20T21:42:05;1.05;;;0.50;;
27704;SDS011;15109;50.992;6.918;2022-11-20T21:45:26;3.05;;;1.08;;
27704;SDS011;15109;50.992;6.918;2022-11-20T21:48:47;8.27;;;1.42;;